createdAt,value
2022-10-20T15:33:29.724Z,100111.41
2022-10-20T15:34:34.989Z,100106.19
2022-10-20T15:35:44.589Z,100102.69
2022-10-20T15:36:51.018Z,100100.28
2022-10-20T15:38:01.012Z,100102.94
2022-10-20T15:39:06.556Z,100095.56
2022-10-20T15:40:11.509Z,100102.00
2022-10-20T15:41:25.626Z,100102.84
2022-10-20T15:42:29.640Z,100096.97
2022-10-20T15:43:33.427Z,100098.09
2022-10-20T15:44:38.124Z,100091.25
2022-10-20T15:45:56.011Z,100097.31
2022-10-20T15:47:00.000Z,100097.69
2022-10-20T15:48:04.497Z,100095.22
2022-10-20T15:49:09.627Z,100098.03
2022-10-20T15:50:14.197Z,100100.69
2022-10-20T15:51:31.330Z,100097.28
2022-10-20T15:52:37.261Z,100099.34
2022-10-20T15:53:41.155Z,100100.19
2022-10-20T15:54:44.982Z,100090.19
2022-10-20T15:55:48.757Z,100097.22
2022-10-20T15:56:52.427Z,100101.59
2022-10-20T15:57:56.787Z,100095.50
2022-10-20T15:59:00.643Z,100100.81
2022-10-20T16:00:04.947Z,100099.03
2022-10-20T16:01:12.863Z,100102.63
2022-10-20T16:02:16.578Z,100098.06
2022-10-20T16:03:20.575Z,100092.84
2022-10-20T16:04:28.881Z,100098.41
2022-10-20T16:05:33.499Z,100102.28
2022-10-20T16:06:38.208Z,100099.72
2022-10-20T16:07:42.840Z,100095.16
2022-10-20T16:08:50.077Z,100084.81
2022-10-20T16:09:54.100Z,100091.66
2022-10-20T16:10:58.170Z,100091.84
2022-10-20T16:12:02.270Z,100091.13
2022-10-20T16:13:06.787Z,100093.03
2022-10-20T16:14:10.887Z,100094.16
2022-10-20T16:15:15.413Z,100092.38
2022-10-20T16:16:20.190Z,100095.09
2022-10-20T16:17:23.988Z,100094.00
2022-10-20T16:18:28.730Z,100096.53
2022-10-20T16:19:32.776Z,100104.50
2022-10-20T16:20:36.812Z,100098.25
2022-10-20T16:21:41.516Z,100105.56
2022-10-20T16:22:45.738Z,100099.41
2022-10-20T16:23:49.392Z,100105.81
2022-10-20T16:24:53.548Z,100097.75
2022-10-20T16:25:57.266Z,100096.47
2022-10-20T16:27:00.930Z,100106.34
2022-10-20T16:28:05.052Z,100095.81
2022-10-20T16:29:08.946Z,100102.31
2022-10-20T16:30:13.233Z,100105.91
2022-10-20T16:31:17.659Z,100111.22
2022-10-20T16:32:25.080Z,100111.72
2022-10-20T16:33:29.451Z,100112.41
2022-10-20T16:34:33.806Z,100106.25
2022-10-20T16:35:44.980Z,100109.84
2022-10-20T16:36:51.025Z,100111.72
2022-10-20T16:37:54.873Z,100120.63
2022-10-20T16:39:00.716Z,100115.31
2022-10-20T16:40:05.230Z,100118.06
2022-10-20T16:41:15.732Z,100119.09
2022-10-20T16:42:20.078Z,100109.22
2022-10-20T16:43:24.382Z,100108.28
2022-10-20T16:44:28.322Z,100116.44
2022-10-20T16:45:39.048Z,100111.28
2022-10-20T16:46:43.142Z,100108.47
2022-10-20T16:47:46.802Z,100109.66
2022-10-20T16:48:50.531Z,100115.22
2022-10-20T16:49:54.679Z,100108.97
2022-10-20T16:50:58.380Z,100109.13
2022-10-20T16:52:02.063Z,100111.88
2022-10-20T16:53:05.982Z,100113.91
2022-10-20T16:54:09.782Z,100113.91
2022-10-20T16:55:13.754Z,100115.78
2022-10-20T16:56:20.807Z,100116.84
2022-10-20T16:57:30.419Z,100106.13
2022-10-20T16:58:34.318Z,100113.22
2022-10-20T16:59:39.180Z,100106.38
2022-10-20T17:00:43.400Z,100115.44
2022-10-20T17:01:47.202Z,100113.69
2022-10-20T17:02:53.144Z,100108.41
2022-10-20T17:03:56.734Z,100112.13
2022-10-20T17:05:02.965Z,100110.56
2022-10-20T17:06:10.844Z,100114.25
2022-10-20T17:07:14.549Z,100117.16
2022-10-20T17:08:18.264Z,100120.06
2022-10-20T17:09:22.348Z,100113.19
2022-10-20T17:10:26.032Z,100112.25
2022-10-20T17:11:32.932Z,100111.25
2022-10-20T17:12:36.974Z,100106.94
2022-10-20T17:13:41.863Z,100120.28
2022-10-20T17:14:45.619Z,100104.69
2022-10-20T17:15:49.311Z,100113.91
2022-10-20T17:16:53.133Z,100117.59
2022-10-20T17:17:56.781Z,100111.59
2022-10-20T17:19:02.764Z,100106.31
2022-10-20T17:20:07.465Z,100104.72
2022-10-20T17:21:12.637Z,100110.03
2022-10-20T17:22:16.583Z,100105.59
2022-10-20T17:23:22.641Z,100112.78
2022-10-20T17:24:26.406Z,100109.41
2022-10-20T17:25:34.952Z,100108.00
2022-10-20T17:26:40.621Z,100108.72
2022-10-20T17:27:44.375Z,100115.88
2022-10-20T17:28:49.305Z,100115.00
2022-10-20T17:29:53.142Z,100105.34
2022-10-20T17:30:57.598Z,100118.69
2022-10-20T17:32:01.480Z,100119.72
2022-10-20T17:33:06.081Z,100116.22
2022-10-20T17:34:10.301Z,100110.09
2022-10-20T17:35:14.843Z,100116.13
2022-10-20T17:36:25.934Z,100120.56
2022-10-20T17:37:52.643Z,100121.56
2022-10-20T17:39:10.746Z,100120.78
2022-10-20T17:40:15.384Z,100109.66
2022-10-20T17:41:27.792Z,100110.38
2022-10-20T17:42:33.224Z,100115.72
2022-10-20T17:43:37.735Z,100114.09
2022-10-20T17:44:45.816Z,100101.78
2022-10-20T17:46:14.260Z,100099.22
2022-10-20T17:47:18.083Z,100114.47
2022-10-20T17:48:21.677Z,100111.06
2022-10-20T17:49:25.855Z,100114.56
2022-10-20T17:50:29.985Z,100114.38
2022-10-20T17:51:35.734Z,100102.25
2022-10-20T17:52:40.301Z,100113.63
2022-10-20T17:53:54.135Z,100101.41
2022-10-20T17:54:58.274Z,100109.19
2022-10-20T17:56:13.356Z,100106.13
2022-10-20T17:57:17.200Z,100112.13
2022-10-20T17:58:25.754Z,100117.50
2022-10-20T17:59:47.338Z,100107.63
2022-10-20T18:01:28.831Z,100117.50
2022-10-20T18:02:34.720Z,100101.84
2022-10-20T18:03:39.490Z,100108.31
2022-10-20T18:04:43.385Z,100109.31
2022-10-20T18:05:47.147Z,100103.06
2022-10-20T18:06:54.646Z,100107.50
2022-10-20T18:07:58.963Z,100111.19
2022-10-20T18:09:11.343Z,100106.66
2022-10-20T18:10:15.224Z,100109.47
2022-10-20T18:11:27.737Z,100099.91
2022-10-20T18:12:31.919Z,100100.75
2022-10-20T18:13:40.578Z,100093.72
2022-10-20T18:14:44.239Z,100099.91
2022-10-20T18:15:54.081Z,100103.41
2022-10-20T18:16:58.450Z,100106.09
2022-10-20T18:18:02.475Z,100100.19
2022-10-20T18:19:13.407Z,100103.63
2022-10-20T18:20:17.545Z,100099.19
2022-10-20T18:21:22.059Z,100101.06
2022-10-20T18:22:27.975Z,100096.59
2022-10-20T18:23:34.243Z,100091.53
2022-10-20T18:24:38.427Z,100091.59
2022-10-20T18:25:42.550Z,100093.78
2022-10-20T18:26:47.078Z,100098.28
2022-10-20T18:27:52.511Z,100101.84
2022-10-20T18:28:57.855Z,100096.88
2022-10-20T18:30:01.612Z,100087.91
2022-10-20T18:31:18.847Z,100097.66
2022-10-20T18:32:22.573Z,100101.00
2022-10-20T18:33:26.267Z,100095.13
2022-10-20T18:34:30.090Z,100094.00
2022-10-20T18:35:37.722Z,100095.78
2022-10-20T18:36:46.139Z,100097.50
2022-10-20T18:37:57.808Z,100088.59
2022-10-20T18:39:02.517Z,100089.91
2022-10-20T18:40:08.251Z,100097.16
2022-10-20T18:41:20.215Z,100092.00
2022-10-20T18:42:28.082Z,100094.72
2022-10-20T18:43:36.427Z,100086.72
2022-10-20T18:44:41.077Z,100090.28
2022-10-20T18:45:55.743Z,100087.63
2022-10-20T18:46:59.875Z,100088.59
2022-10-20T18:48:04.931Z,100087.50
2022-10-20T18:49:13.346Z,100083.38
2022-10-20T18:50:17.182Z,100088.59
2022-10-20T18:51:29.471Z,100088.50
2022-10-20T18:52:34.976Z,100085.72
2022-10-20T18:54:49.699Z,100080.47
2022-10-20T18:56:08.026Z,100083.94
2022-10-20T18:57:15.465Z,100077.69
2022-10-20T18:58:19.739Z,100076.13
2022-10-20T18:59:23.740Z,100076.06
2022-10-20T19:00:27.762Z,100085.00
2022-10-20T19:01:35.560Z,100085.06
2022-10-20T19:02:39.861Z,100087.81
2022-10-20T19:03:51.241Z,100082.50
2022-10-20T19:04:55.415Z,100079.88
2022-10-20T19:06:15.979Z,100085.06
2022-10-20T19:07:19.827Z,100077.06
2022-10-20T19:08:23.629Z,100075.34
2022-10-20T19:09:27.560Z,100084.22
2022-10-20T19:10:31.459Z,100075.50
2022-10-20T19:11:40.077Z,100073.84
2022-10-20T19:12:44.053Z,100070.63
2022-10-20T19:13:48.934Z,100070.72
2022-10-20T19:14:52.869Z,100077.63
2022-10-20T19:15:59.554Z,100068.91
2022-10-20T19:17:03.405Z,100074.38
2022-10-20T19:18:07.231Z,100075.22
2022-10-20T19:19:11.944Z,100076.22
2022-10-20T19:20:23.359Z,100073.44
2022-10-20T19:21:34.376Z,100070.78
2022-10-20T19:22:39.733Z,100075.00
2022-10-20T19:23:51.944Z,100072.28
2022-10-20T19:24:55.793Z,100072.50
2022-10-20T19:26:11.053Z,100067.03
2022-10-20T19:27:26.124Z,100069.69
2022-10-20T19:28:35.158Z,100070.50
2022-10-20T19:29:39.023Z,100073.22
2022-10-20T19:30:42.852Z,100065.22
2022-10-20T19:31:52.818Z,100065.22
2022-10-20T19:32:57.005Z,100066.13
2022-10-20T19:34:26.106Z,100065.22
2022-10-20T19:35:33.027Z,100062.75
2022-10-20T19:36:38.385Z,100067.97
2022-10-20T19:37:42.877Z,100065.34
2022-10-20T19:38:48.406Z,100066.06
2022-10-20T19:39:53.021Z,100071.47
2022-10-20T19:40:58.215Z,100077.63
2022-10-20T19:42:05.284Z,100076.78
2022-10-20T19:43:10.481Z,100072.50
2022-10-20T19:44:17.424Z,100076.06
2022-10-20T19:45:21.292Z,100075.16
2022-10-20T19:46:28.938Z,100078.84
2022-10-20T19:47:34.435Z,100079.66
2022-10-20T19:48:38.399Z,100077.22
2022-10-20T19:49:42.410Z,100078.00
2022-10-20T19:50:47.139Z,100072.78
2022-10-20T19:51:52.190Z,100074.50
2022-10-20T19:52:58.819Z,100073.94
2022-10-20T19:54:10.867Z,100074.66
2022-10-20T19:55:15.938Z,100068.59
2022-10-20T19:56:20.101Z,100077.47
2022-10-20T19:57:23.816Z,100074.84
2022-10-20T19:58:28.982Z,100078.34
2022-10-20T19:59:34.801Z,100073.06
2022-10-20T20:00:43.600Z,100064.34
2022-10-20T20:01:53.189Z,100068.78
2022-10-20T20:02:59.722Z,100068.78
2022-10-20T20:04:04.474Z,100068.13
2022-10-20T20:05:09.070Z,100069.06
2022-10-20T20:06:18.261Z,100065.69
2022-10-20T20:07:22.158Z,100064.09
2022-10-20T20:08:26.727Z,100057.19
2022-10-20T20:09:32.044Z,100065.13
2022-10-20T20:10:37.755Z,100070.50
2022-10-20T20:11:43.168Z,100066.19
2022-10-20T20:12:47.509Z,100074.19
2022-10-20T20:13:56.722Z,100065.75
2022-10-20T20:15:01.111Z,100063.03
2022-10-20T20:16:07.903Z,100058.75
2022-10-20T20:17:11.922Z,100064.16
2022-10-20T20:18:17.438Z,100061.59
2022-10-20T20:19:24.597Z,100055.59
2022-10-20T20:20:28.619Z,100055.59
2022-10-20T20:21:43.388Z,100057.44
2022-10-20T20:22:47.488Z,100054.94
2022-10-20T20:24:01.131Z,100059.31
2022-10-20T20:25:14.600Z,100059.56
2022-10-20T20:26:18.724Z,100056.22
2022-10-20T20:27:22.552Z,100062.38
2022-10-20T20:28:27.513Z,100060.69
2022-10-20T20:29:31.228Z,100054.63
2022-10-20T20:30:36.578Z,100057.56
2022-10-20T20:31:41.096Z,100059.22
2022-10-20T20:32:50.730Z,100048.91
2022-10-20T20:34:00.024Z,100058.56
2022-10-20T20:36:14.366Z,100058.75
2022-10-20T20:37:18.593Z,100061.66
2022-10-20T20:38:22.938Z,100053.22
2022-10-20T20:39:26.936Z,100057.13
2022-10-20T20:40:31.107Z,100054.63
2022-10-20T20:41:37.231Z,100055.47
2022-10-20T20:42:42.413Z,100054.56
2022-10-20T20:43:46.833Z,100048.53
2022-10-20T20:44:53.377Z,100050.31
2022-10-20T20:46:08.912Z,100049.47
2022-10-20T20:47:12.934Z,100046.78
2022-10-20T20:48:16.709Z,100040.47
2022-10-20T20:49:20.680Z,100038.69
2022-10-20T20:50:24.314Z,100032.63
2022-10-20T20:51:29.419Z,100030.03
2022-10-20T20:52:33.797Z,100028.31
2022-10-20T20:53:39.905Z,100027.53
2022-10-20T20:54:44.015Z,100039.03
2022-10-20T20:55:56.903Z,100030.34
2022-10-20T20:57:00.517Z,100041.25
2022-10-20T20:58:04.188Z,100037.69
2022-10-20T20:59:08.276Z,100024.63
2022-10-20T21:00:13.045Z,100023.09
2022-10-20T21:01:28.206Z,100033.59
2022-10-20T21:02:33.857Z,100031.84
2022-10-20T21:03:38.163Z,100035.34
2022-10-20T21:04:44.702Z,100036.19
2022-10-20T21:05:48.696Z,100037.97
2022-10-20T21:07:08.701Z,100048.53
2022-10-20T21:08:12.571Z,100045.94
2022-10-20T21:09:16.371Z,100045.09
2022-10-20T21:10:20.228Z,100042.78
2022-10-20T21:11:28.750Z,100046.34
2022-10-20T21:12:35.311Z,100030.03
2022-10-20T21:13:41.183Z,100030.97
2022-10-20T21:14:47.433Z,100034.41
2022-10-20T21:15:51.557Z,100033.66
2022-10-20T21:16:56.355Z,100030.91
2022-10-20T21:18:00.488Z,100029.03
2022-10-20T21:19:09.779Z,100026.53
2022-10-20T21:20:13.658Z,100019.56
2022-10-20T21:21:22.036Z,100018.69
2022-10-20T21:22:25.845Z,100019.59
2022-10-20T21:23:31.542Z,100018.75
2022-10-20T21:24:36.054Z,100021.69
2022-10-20T21:25:40.258Z,100021.16
2022-10-20T21:26:44.593Z,100017.75
2022-10-20T21:27:48.214Z,100014.34
2022-10-20T21:28:55.021Z,100017.91
2022-10-20T21:29:58.962Z,100011.78
2022-10-20T21:31:14.885Z,100010.06
2022-10-20T21:32:20.612Z,100012.78
2022-10-20T21:33:28.614Z,100012.72
2022-10-20T21:34:32.599Z,100005.66
2022-10-20T21:35:36.615Z,100007.44
2022-10-20T21:36:40.848Z,100007.34
2022-10-20T21:37:48.828Z,100006.50
2022-10-20T21:38:53.201Z,100000.44
2022-10-20T21:39:56.990Z,99997.91
2022-10-20T21:41:15.650Z,99989.22
2022-10-20T21:42:20.546Z,100003.25
2022-10-20T21:43:29.052Z,99995.41
2022-10-20T21:44:33.297Z,99996.34
2022-10-20T21:45:38.344Z,99994.63
2022-10-20T21:46:49.494Z,99991.84
2022-10-20T21:47:56.997Z,99997.13
2022-10-20T21:49:08.378Z,99998.91
2022-10-20T21:50:12.329Z,99995.34
2022-10-20T21:51:32.362Z,99994.56
2022-10-20T21:52:39.343Z,99999.75
2022-10-20T21:53:43.797Z,100002.34
2022-10-20T21:54:48.414Z,100003.25
2022-10-20T21:55:52.275Z,99997.13
2022-10-20T21:56:57.512Z,99998.84
2022-10-20T21:58:01.404Z,99998.81
2022-10-20T21:59:06.489Z,99997.91
2022-10-20T22:00:11.764Z,99996.19
2022-10-20T22:01:24.596Z,99996.16
2022-10-20T22:02:31.717Z,99982.22
2022-10-20T22:03:43.361Z,99983.84
2022-10-20T22:04:47.956Z,99982.03
2022-10-20T22:05:55.204Z,99981.19
2022-10-20T22:06:59.913Z,99986.56
2022-10-20T22:08:04.586Z,99976.94
2022-10-20T22:09:10.604Z,99979.50
2022-10-20T22:10:15.236Z,99975.16
2022-10-20T22:11:32.652Z,99974.31
2022-10-20T22:13:47.224Z,99965.72
2022-10-20T22:14:51.058Z,99968.34
2022-10-20T22:15:55.499Z,99961.28
2022-10-20T22:16:59.668Z,99964.06
2022-10-20T22:18:03.359Z,99964.94
2022-10-20T22:19:18.619Z,99973.63
2022-10-20T22:20:24.823Z,99971.06
2022-10-20T22:21:29.696Z,99967.50
2022-10-20T22:22:33.470Z,99964.94
2022-10-20T22:23:37.221Z,99970.28
2022-10-20T22:24:40.851Z,99972.06
2022-10-20T22:25:47.513Z,99973.84
2022-10-20T22:26:53.184Z,99969.50
2022-10-20T22:27:57.378Z,99971.38
2022-10-20T22:29:03.052Z,99966.88
2022-10-20T22:30:08.309Z,99971.31
2022-10-20T22:31:15.903Z,99973.09
2022-10-20T22:32:24.815Z,99970.44
2022-10-20T22:33:29.376Z,99980.03
2022-10-20T22:34:40.480Z,99973.16
2022-10-20T22:35:47.388Z,99967.09
2022-10-20T22:36:51.238Z,99965.41
2022-10-20T22:37:55.821Z,99963.78
2022-10-20T22:38:59.856Z,99968.25
2022-10-20T22:40:04.025Z,99962.00
2022-10-20T22:41:08.005Z,99959.44
2022-10-20T22:42:14.187Z,99949.13
2022-10-20T22:43:18.309Z,99946.41
2022-10-20T22:44:22.014Z,99943.00
2022-10-20T22:45:26.077Z,99948.41
2022-10-20T22:46:34.587Z,99955.44
2022-10-20T22:47:43.193Z,99961.44
2022-10-20T22:48:47.281Z,99957.16
2022-10-20T22:49:52.146Z,99952.69
2022-10-20T22:50:56.069Z,99954.56
2022-10-20T22:52:00.122Z,99951.94
2022-10-20T22:53:03.997Z,99950.13
2022-10-20T22:54:08.366Z,99944.84
2022-10-20T22:55:12.264Z,99951.91
2022-10-20T22:56:20.064Z,99952.06
2022-10-20T22:57:23.863Z,99949.50
2022-10-20T22:58:27.854Z,99958.38
2022-10-20T22:59:33.084Z,99953.16
2022-10-20T23:00:40.602Z,99950.66
2022-10-20T23:01:46.289Z,99953.31
2022-10-20T23:02:50.554Z,99945.41
2022-10-20T23:03:55.760Z,99950.53
2022-10-20T23:05:03.674Z,99951.38
2022-10-20T23:06:18.219Z,99946.25
2022-10-20T23:07:21.854Z,99945.47
2022-10-20T23:08:29.393Z,99951.63
2022-10-20T23:09:36.220Z,99952.56
2022-10-20T23:10:39.961Z,99951.84
2022-10-20T23:11:44.515Z,99958.88
2022-10-20T23:12:48.370Z,99958.06
2022-10-20T23:13:52.577Z,99961.59
2022-10-20T23:14:57.043Z,99953.78
2022-10-20T23:16:01.917Z,99948.50
2022-10-20T23:17:06.175Z,99958.97
2022-10-20T23:18:09.807Z,99943.31
2022-10-20T23:19:14.095Z,99959.84
2022-10-20T23:20:18.305Z,99951.22
2022-10-20T23:21:22.007Z,99952.78
2022-10-20T23:22:26.209Z,99952.75
2022-10-20T23:23:31.388Z,99951.06
2022-10-20T23:24:37.691Z,99958.94
2022-10-20T23:25:44.654Z,99951.03
2022-10-20T23:26:48.827Z,99958.06
2022-10-20T23:27:52.714Z,99954.53
2022-10-20T23:28:56.774Z,99945.69
2022-10-20T23:30:04.095Z,99939.56
2022-10-20T23:31:18.267Z,99937.88
2022-10-20T23:32:22.028Z,99939.56
2022-10-20T23:33:26.186Z,99933.56
2022-10-20T23:34:29.950Z,99939.69
2022-10-20T23:35:39.976Z,99934.41
2022-10-20T23:36:46.549Z,99943.16
2022-10-20T23:37:53.571Z,99943.16
2022-10-20T23:38:57.852Z,99945.88
2022-10-20T23:40:01.979Z,99947.66
2022-10-20T23:41:06.786Z,99941.59
2022-10-20T23:42:10.972Z,99944.09
2022-10-20T23:43:18.693Z,99937.97
2022-10-20T23:44:22.800Z,99940.72
2022-10-20T23:45:26.611Z,99944.22
2022-10-20T23:46:32.684Z,99940.66
2022-10-20T23:47:36.818Z,99935.41
2022-10-20T23:48:41.453Z,99941.69
2022-10-20T23:49:45.714Z,99939.06
2022-10-20T23:50:49.806Z,99932.94
2022-10-20T23:51:53.465Z,99929.38
2022-10-20T23:52:57.399Z,99928.50
2022-10-20T23:54:01.160Z,99926.88
2022-10-20T23:55:06.006Z,99932.16
2022-10-20T23:56:13.090Z,99941.75
2022-10-20T23:57:16.673Z,99938.34
2022-10-20T23:58:22.682Z,99935.63
2022-10-20T23:59:26.821Z,99923.47
